Lum, Michigan
Current Conditions -  °F | °C
As of 10:14 PM on Saturday 25 Oct 2014 (Local Time) from KD95 Reporting Station
Clear Clear  
Wind Chill: 12°   Ceiling: Unl
Heat Index: 12°   Visibility: 10mi
Dew Point: -1°   Wind: 10mph
Humidity: 43%   Direction: 280°W
Pressure: 29.78"   Gusts: NA
Location:  43.0581°N, 83.167°W
Report Text: KD95 260214Z AUTO 28009KT 10SM CLR 12/00 A2978 RMK AO2 T01161005
Loading
Personal Weather Stations






























Interactive Weather Map
Tropical Storm Tracking
New forecast layout! Learn more

10-Day Weather Forecast

Advertisements
Track Severe Weather on mobile